Time;durP1;ratioP1;P1;durP2;ratioP2;P2;SDS_P1;SDS_P2;PMS_P1;PMS_P2;Temp;Humidity;BMP_temperature;BMP_pressure;BME280_temperature;BME280_humidity;BME280_pressure;Samples;Min_cycle;Max_cycle;Signal;HPM_P1;HPM_P2
2021/11/16 00:01:08;;;;;;;12.73;12.23;;;20.00;95.10;;;;;;5031547;28;20825;-51
2021/11/16 00:03:35;;;;;;;12.23;11.83;;;20.00;94.70;;;;;;5031506;28;20445;-53
2021/11/16 00:06:02;;;;;;;13.17;12.73;;;20.10;94.40;;;;;;5031537;28;20489;-50
2021/11/16 00:08:28;;;;;;;13.27;12.67;;;20.00;94.20;;;;;;5031403;28;20456;-50
2021/11/16 00:10:56;;;;;;;12.77;12.30;;;20.00;94.00;;;;;;5043011;28;20452;-50
2021/11/16 00:13:23;;;;;;;13.60;13.00;;;20.00;93.90;;;;;;5051064;28;20448;-52
2021/11/16 00:15:50;;;;;;;13.73;13.23;;;19.90;93.90;;;;;;5051194;28;20487;-49
2021/11/16 00:18:19;;;;;;;11.80;11.40;;;19.90;93.80;;;;;;5051427;28;20448;-50
2021/11/16 00:20:46;;;;;;;11.73;11.33;;;19.90;93.80;;;;;;5051218;28;20472;-50
2021/11/16 00:23:17;;;;;;;14.50;13.90;;;19.80;93.80;;;;;;5051316;28;20455;-50
2021/11/16 00:25:44;;;;;;;13.10;12.50;;;19.90;93.80;;;;;;5034621;28;20608;-51
2021/11/16 00:28:12;;;;;;;12.50;12.10;;;19.80;93.50;;;;;;5031473;28;20507;-51
2021/11/16 00:30:40;;;;;;;13.17;12.67;;;19.80;93.50;;;;;;5031379;28;20453;-52
2021/11/16 00:33:07;;;;;;;12.60;12.20;;;19.80;93.50;;;;;;5031493;28;20445;-50
2021/11/16 00:35:37;;;;;;;13.20;12.63;;;19.70;93.50;;;;;;5034705;28;20481;-54
2021/11/16 00:38:05;;;;;;;12.70;12.30;;;19.70;93.50;;;;;;5035386;28;20483;-57
2021/11/16 00:40:31;;;;;;;13.27;12.77;;;19.70;93.50;;;;;;5039105;28;20444;-52
2021/11/16 00:42:58;;;;;;;13.60;13.10;;;19.70;93.60;;;;;;5055156;28;20448;-52
2021/11/16 00:45:27;;;;;;;12.67;12.17;;;19.70;93.60;;;;;;5054964;28;20460;-51
2021/11/16 00:47:54;;;;;;;13.60;13.10;;;19.70;93.60;;;;;;5055058;28;20941;-54
2021/11/16 00:50:21;;;;;;;13.60;13.10;;;19.60;93.80;;;;;;5054785;28;20443;-52
2021/11/16 00:52:48;;;;;;;13.10;12.70;;;19.60;93.50;;;;;;5054932;28;20440;-52
2021/11/16 00:55:15;;;;;;;13.87;13.37;;;19.60;93.60;;;;;;5054838;28;20483;-54
2021/11/16 00:57:42;;;;;;;13.07;12.57;;;19.50;93.60;;;;;;5053214;28;20444;-53
2021/11/16 01:00:11;;;;;;;13.30;12.80;;;19.50;93.60;;;;;;5054620;28;20829;-54
2021/11/16 01:02:39;;;;;;;12.47;12.00;;;19.50;93.60;;;;;;5054728;28;20956;-50
2021/11/16 01:05:08;;;;;;;13.60;13.10;;;19.50;93.60;;;;;;5054649;28;20443;-50
2021/11/16 01:07:36;;;;;;;13.87;13.27;;;19.50;93.60;;;;;;5054712;28;20447;-50
2021/11/16 01:10:03;;;;;;;13.10;12.50;;;19.50;93.70;;;;;;5054488;28;20841;-57
2021/11/16 01:12:30;;;;;;;13.60;13.00;;;19.40;93.80;;;;;;5054582;28;20929;-51
2021/11/16 01:14:57;;;;;;;13.33;12.83;;;19.40;93.90;;;;;;5052597;28;20480;-56
2021/11/16 01:17:25;;;;;;;13.13;12.63;;;19.40;94.00;;;;;;5054447;28;20464;-53
2021/11/16 01:19:53;;;;;;;13.03;12.63;;;19.40;94.00;;;;;;5054269;28;20557;-51
2021/11/16 01:22:20;;;;;;;12.60;12.20;;;19.40;94.10;;;;;;5054466;28;20454;-54
2021/11/16 01:24:47;;;;;;;13.60;13.10;;;19.30;94.10;;;;;;5054323;28;20458;-50
2021/11/16 01:27:18;;;;;;;13.77;13.27;;;19.30;94.00;;;;;;5054265;28;20475;-55
2021/11/16 01:29:46;;;;;;;12.50;12.10;;;19.30;94.10;;;;;;5054095;28;20961;-52
2021/11/16 01:32:26;;;;;;;13.60;13.10;;;19.30;94.30;;;;;;5037047;28;20453;-50
2021/11/16 01:34:54;;;;;;;12.93;12.53;;;19.30;94.30;;;;;;5034281;28;20440;-55
2021/11/16 01:37:21;;;;;;;13.00;12.60;;;19.30;94.20;;;;;;5034134;28;20469;-51
2021/11/16 01:39:48;;;;;;;12.73;12.33;;;19.20;94.30;;;;;;5033959;28;20503;-52
2021/11/16 01:42:15;;;;;;;13.40;13.00;;;19.20;94.40;;;;;;5034165;28;20448;-54
2021/11/16 01:44:42;;;;;;;12.30;11.90;;;19.10;94.50;;;;;;5033711;28;20453;-58
2021/11/16 01:47:09;;;;;;;12.87;12.37;;;19.20;94.50;;;;;;5035008;28;20465;-57
2021/11/16 01:49:36;;;;;;;14.10;13.20;;;19.20;94.50;;;;;;5033791;28;20461;-50
2021/11/16 01:52:05;;;;;;;13.07;12.60;;;19.20;94.50;;;;;;5033996;28;20449;-51
2021/11/16 01:54:32;;;;;;;13.77;13.27;;;19.20;94.70;;;;;;5033886;28;21029;-50
2021/11/16 01:56:59;;;;;;;13.30;12.80;;;19.20;94.40;;;;;;5033954;28;20488;-52
2021/11/16 01:59:26;;;;;;;12.20;11.80;;;19.30;94.20;;;;;;5033727;28;20445;-53
2021/11/16 02:01:54;;;;;;;13.57;13.00;;;19.20;94.20;;;;;;5033776;28;20480;-50
2021/11/16 02:04:23;;;;;;;13.10;12.60;;;19.20;94.20;;;;;;5034906;28;20449;-53
2021/11/16 02:06:50;;;;;;;12.67;12.30;;;19.20;94.20;;;;;;5033482;28;20504;-50
2021/11/16 02:09:19;;;;;;;12.13;11.73;;;19.20;94.30;;;;;;5033450;28;20452;-52
2021/11/16 02:11:47;;;;;;;13.23;12.73;;;19.10;94.30;;;;;;5034755;28;20867;-51
2021/11/16 02:14:17;;;;;;;13.23;12.73;;;19.20;94.20;;;;;;5033631;28;20551;-52
2021/11/16 02:16:45;;;;;;;13.27;12.80;;;19.10;94.30;;;;;;5033390;28;20493;-51
2021/11/16 02:19:14;;;;;;;12.53;12.13;;;19.10;94.20;;;;;;5033365;28;20445;-52
2021/11/16 02:21:42;;;;;;;13.23;12.73;;;19.10;94.30;;;;;;5042848;28;20451;-50
2021/11/16 02:24:10;;;;;;;13.00;12.60;;;19.10;94.20;;;;;;5032524;28;20867;-51
2021/11/16 02:26:37;;;;;;;12.90;12.40;;;19.10;94.10;;;;;;5033133;28;20970;-53
2021/11/16 02:29:05;;;;;;;13.27;12.80;;;19.10;94.20;;;;;;5033014;28;20464;-50
2021/11/16 02:31:32;;;;;;;13.03;12.60;;;19.10;94.20;;;;;;5033333;28;20445;-50
2021/11/16 02:34:00;;;;;;;13.47;12.87;;;19.10;94.20;;;;;;5033349;28;20456;-51
2021/11/16 02:36:29;;;;;;;12.97;12.57;;;19.10;94.20;;;;;;5032995;28;20876;-50
2021/11/16 02:38:58;;;;;;;13.27;12.77;;;19.00;94.30;;;;;;5017907;28;20484;-50
2021/11/16 02:41:31;;;;;;;13.20;12.70;;;19.00;94.30;;;;;;5032972;28;20469;-50
2021/11/16 02:43:59;;;;;;;13.33;12.90;;;19.00;94.20;;;;;;5033038;28;20484;-51
2021/11/16 02:46:25;;;;;;;12.53;12.13;;;19.10;94.20;;;;;;5032784;28;20488;-50
2021/11/16 02:48:52;;;;;;;12.90;12.40;;;19.10;94.50;;;;;;5032780;28;20476;-50
2021/11/16 02:51:19;;;;;;;13.00;12.50;;;19.00;94.20;;;;;;5032770;28;20951;-51
2021/11/16 02:53:46;;;;;;;12.80;12.30;;;19.00;94.20;;;;;;5033907;28;20449;-50
2021/11/16 02:56:14;;;;;;;12.90;12.47;;;19.00;94.20;;;;;;5032136;28;20469;-50
2021/11/16 02:58:41;;;;;;;13.80;13.30;;;18.90;94.30;;;;;;5032216;28;20444;-50
2021/11/16 03:01:10;;;;;;;13.83;13.23;;;19.00;94.50;;;;;;5032683;28;20536;-50
2021/11/16 03:03:38;;;;;;;13.70;13.10;;;18.90;94.50;;;;;;5032630;28;20953;-50
2021/11/16 03:06:05;;;;;;;12.77;12.37;;;18.90;94.50;;;;;;5032368;28;20532;-50
2021/11/16 03:08:32;;;;;;;12.97;12.47;;;19.00;94.30;;;;;;5032584;28;20499;-50
2021/11/16 03:11:00;;;;;;;13.00;12.50;;;18.90;94.30;;;;;;5033506;28;20450;-50
2021/11/16 03:13:36;;;;;;;13.60;13.10;;;18.90;94.40;;;;;;5032451;28;20457;-50
2021/11/16 03:16:03;;;;;;;12.40;12.00;;;18.90;94.30;;;;;;5032462;28;20465;-51
2021/11/16 03:18:30;;;;;;;14.63;14.03;;;18.90;94.40;;;;;;5032317;28;20530;-50
2021/11/16 03:20:56;;;;;;;13.80;13.30;;;18.90;94.50;;;;;;5032185;28;20448;-50
2021/11/16 03:23:24;;;;;;;13.60;13.10;;;18.90;94.60;;;;;;5032213;28;20449;-51
2021/11/16 03:25:54;;;;;;;13.40;12.90;;;18.90;94.60;;;;;;5031905;28;20495;-51
2021/11/16 03:28:23;;;;;;;13.37;12.87;;;18.90;94.60;;;;;;5033294;28;20548;-51
2021/11/16 03:30:54;;;;;;;13.30;12.80;;;18.90;94.70;;;;;;5031911;28;20785;-50
2021/11/16 03:33:23;;;;;;;14.03;13.50;;;18.90;94.80;;;;;;5032093;28;20453;-50
2021/11/16 03:35:50;;;;;;;13.20;12.70;;;18.90;94.90;;;;;;5032001;28;20797;-50
2021/11/16 03:38:19;;;;;;;13.87;13.37;;;18.90;94.90;;;;;;5032013;28;20452;-50
2021/11/16 03:40:47;;;;;;;13.70;13.20;;;18.90;95.00;;;;;;5031667;28;20453;-50
2021/11/16 03:43:16;;;;;;;12.80;12.30;;;18.90;95.00;;;;;;5032953;28;20456;-50
2021/11/16 03:45:43;;;;;;;13.87;13.33;;;18.90;95.00;;;;;;5031894;28;20512;-50
2021/11/16 03:48:11;;;;;;;14.10;13.40;;;18.80;95.10;;;;;;5031858;28;20823;-51
2021/11/16 03:50:41;;;;;;;13.20;12.70;;;18.90;95.10;;;;;;5031707;28;20460;-51
2021/11/16 03:53:09;;;;;;;13.53;13.03;;;18.90;95.00;;;;;;5031755;28;20449;-50
2021/11/16 03:55:38;;;;;;;13.90;13.30;;;18.80;95.10;;;;;;5031722;28;20527;-50
2021/11/16 03:58:06;;;;;;;13.60;13.10;;;18.90;95.40;;;;;;5031656;28;20476;-53
2021/11/16 04:00:37;;;;;;;13.43;12.93;;;18.90;95.70;;;;;;5036096;28;20929;-50
2021/11/16 04:03:04;;;;;;;12.30;11.90;;;18.90;96.20;;;;;;5051573;28;20449;-51
2021/11/16 04:05:33;;;;;;;13.27;12.83;;;18.80;96.30;;;;;;5051352;28;20464;-56
2021/11/16 04:08:00;;;;;;;14.00;13.50;;;18.80;96.50;;;;;;5051351;28;20452;-52
2021/11/16 04:10:28;;;;;;;13.60;13.10;;;18.80;96.50;;;;;;5051060;28;20452;-50
2021/11/16 04:12:55;;;;;;;14.17;13.67;;;18.80;96.80;;;;;;5051510;28;20463;-50
2021/11/16 04:15:23;;;;;;;13.50;13.00;;;18.80;96.90;;;;;;5051326;28;20499;-50
2021/11/16 04:17:51;;;;;;;13.77;13.20;;;18.80;97.30;;;;;;5049345;28;20987;-50
2021/11/16 04:20:20;;;;;;;13.97;13.37;;;18.80;97.00;;;;;;5051165;28;20449;-50
2021/11/16 04:22:48;;;;;;;13.47;12.97;;;18.80;97.10;;;;;;5051286;28;20444;-50
2021/11/16 04:25:17;;;;;;;13.93;13.40;;;18.90;97.10;;;;;;5051197;28;20452;-50
2021/11/16 04:27:45;;;;;;;14.33;13.73;;;18.90;97.20;;;;;;5057570;22;20492;-53
2021/11/16 04:30:14;;;;;;;13.27;12.77;;;18.90;97.10;;;;;;5030977;28;20862;-50
2021/11/16 04:32:42;;;;;;;13.60;13.10;;;18.90;97.10;;;;;;5031386;28;20452;-50
2021/11/16 04:35:10;;;;;;;13.33;12.83;;;19.00;97.00;;;;;;5031363;28;20934;-50
2021/11/16 04:37:38;;;;;;;13.37;12.87;;;19.00;97.00;;;;;;5030990;28;20542;-50
2021/11/16 04:40:08;;;;;;;13.80;13.30;;;19.00;97.00;;;;;;5030925;28;20459;-49
2021/11/16 04:42:35;;;;;;;13.30;12.80;;;19.00;96.90;;;;;;5031057;28;20448;-49
2021/11/16 04:45:02;;;;;;;12.83;12.43;;;19.00;97.00;;;;;;5031268;28;20587;-50
2021/11/16 04:47:33;;;;;;;13.57;13.07;;;18.90;97.00;;;;;;5030958;28;20492;-49
2021/11/16 04:50:06;;;;;;;14.10;13.50;;;18.90;97.10;;;;;;5031029;28;20445;-48
2021/11/16 04:52:39;;;;;;;14.30;13.80;;;18.90;97.30;;;;;;5031276;28;20445;-53
2021/11/16 05:03:20;;;;;;;13.90;13.40;;;18.90;97.40;;;;;;5031222;28;20428;-51
2021/11/16 05:05:47;;;;;;;14.40;13.90;;;18.90;97.50;;;;;;5030972;28;20448;-49
2021/11/16 05:08:15;;;;;;;13.50;13.00;;;18.90;97.70;;;;;;5030910;28;20456;-50
2021/11/16 05:10:43;;;;;;;13.70;13.20;;;18.90;97.70;;;;;;5030797;28;20573;-50
2021/11/16 05:13:10;;;;;;;14.57;13.97;;;18.90;97.70;;;;;;5030949;28;20476;-49
2021/11/16 05:15:40;;;;;;;14.10;13.60;;;18.90;97.70;;;;;;5030633;28;20449;-49
2021/11/16 05:18:07;;;;;;;14.57;14.07;;;18.90;97.60;;;;;;5030620;28;20879;-49
2021/11/16 05:20:34;;;;;;;15.00;14.40;;;18.90;97.60;;;;;;5032264;28;20803;-49
2021/11/16 05:23:01;;;;;;;14.07;13.47;;;18.90;97.60;;;;;;5034514;28;20812;-50
2021/11/16 05:25:28;;;;;;;14.10;13.50;;;19.00;97.60;;;;;;5034389;28;20445;-50
2021/11/16 05:27:56;;;;;;;14.33;13.83;;;18.90;97.60;;;;;;5034105;28;20517;-51
2021/11/16 05:30:28;;;;;;;13.83;13.33;;;18.90;97.70;;;;;;5034262;28;20502;-50
2021/11/16 05:32:55;;;;;;;14.80;14.20;;;18.90;97.80;;;;;;5034052;28;20460;-47
2021/11/16 05:35:22;;;;;;;14.23;13.73;;;18.90;97.70;;;;;;5034303;28;20449;-49
2021/11/16 05:37:49;;;;;;;14.90;14.40;;;18.90;97.70;;;;;;5034059;28;20460;-49
2021/11/16 05:40:16;;;;;;;15.07;14.47;;;18.90;97.90;;;;;;5033859;28;20449;-49
2021/11/16 05:42:43;;;;;;;14.37;13.87;;;18.90;97.80;;;;;;5033880;28;20483;-50
2021/11/16 05:45:11;;;;;;;14.80;14.20;;;18.80;98.10;;;;;;5034038;28;20934;-46
2021/11/16 05:47:41;;;;;;;14.60;14.00;;;18.90;98.00;;;;;;5033868;28;20489;-46
2021/11/16 05:50:10;;;;;;;13.53;13.13;;;18.80;98.00;;;;;;5033312;28;20457;-46
2021/11/16 05:52:37;;;;;;;14.37;13.67;;;19.30;98.60;;;;;;5033957;28;20449;-46
2021/11/16 05:55:07;;;;;;;13.60;13.10;;;20.20;95.60;;;;;;5033882;28;20479;-45
2021/11/16 05:57:34;;;;;;;14.20;13.60;;;21.10;92.50;;;;;;5033921;28;20469;-48
2021/11/16 06:00:01;;;;;;;15.10;14.50;;;21.60;90.50;;;;;;5033665;28;20572;-50
2021/11/16 06:02:29;;;;;;;16.10;15.40;;;21.90;87.90;;;;;;5033729;28;20520;-49
2021/11/16 06:04:56;;;;;;;14.77;14.20;;;22.00;85.50;;;;;;5033838;28;20440;-50
2021/11/16 06:07:23;;;;;;;15.90;15.30;;;22.10;83.90;;;;;;5033212;28;20485;-51
2021/11/16 06:09:50;;;;;;;15.17;14.57;;;22.10;82.70;;;;;;5033297;28;20934;-54
2021/11/16 06:12:17;;;;;;;16.27;15.67;;;22.20;81.90;;;;;;5033620;28;20453;-52
2021/11/16 06:14:45;;;;;;;16.00;15.30;;;22.20;81.00;;;;;;5033487;28;20448;-49
2021/11/16 06:17:11;;;;;;;15.20;14.60;;;22.20;80.50;;;;;;5033395;28;20465;-55
2021/11/16 06:19:40;;;;;;;14.93;14.43;;;22.20;80.00;;;;;;5033305;28;20475;-49
2021/11/16 06:22:09;;;;;;;16.43;15.80;;;22.10;79.60;;;;;;5033130;28;20444;-51
2021/11/16 06:24:36;;;;;;;15.20;14.70;;;22.10;79.40;;;;;;5031315;28;20472;-51
2021/11/16 06:27:04;;;;;;;15.30;14.70;;;22.10;79.10;;;;;;5017483;28;20853;-46
2021/11/16 06:29:30;;;;;;;15.80;15.20;;;22.10;79.80;;;;;;5020966;28;20457;-46
2021/11/16 06:31:57;;;;;;;16.60;16.00;;;22.00;79.90;;;;;;5021069;28;21278;-46
2021/11/16 06:34:24;;;;;;;16.70;16.00;;;22.00;80.40;;;;;;5021179;28;20532;-48
2021/11/16 06:36:52;;;;;;;15.63;15.03;;;22.00;80.80;;;;;;5020991;28;20465;-45
2021/11/16 06:39:21;;;;;;;15.87;15.33;;;22.00;81.10;;;;;;5020948;28;20452;-48
2021/11/16 06:41:50;;;;;;;15.63;15.03;;;21.90;81.30;;;;;;5020966;28;20901;-49
2021/11/16 06:44:19;;;;;;;16.13;15.53;;;21.90;81.60;;;;;;5020977;28;20766;-52
2021/11/16 06:46:48;;;;;;;17.03;16.37;;;21.80;81.80;;;;;;5020702;28;20624;-46
2021/11/16 06:49:15;;;;;;;14.87;14.27;;;21.70;81.90;;;;;;5020680;28;20453;-47
2021/11/16 06:51:45;;;;;;;16.03;15.43;;;21.70;82.10;;;;;;5020886;28;20915;-46
2021/11/16 06:54:15;;;;;;;15.57;14.97;;;21.70;82.30;;;;;;5020805;28;20456;-47
2021/11/16 06:56:45;;;;;;;15.47;14.87;;;21.60;82.40;;;;;;5020438;28;21009;-51
2021/11/16 06:59:11;;;;;;;16.60;15.90;;;21.60;82.60;;;;;;5020592;28;20456;-49
2021/11/16 07:01:38;;;;;;;16.40;15.70;;;21.50;82.20;;;;;;5020613;28;20476;-49
2021/11/16 07:04:09;;;;;;;15.93;15.33;;;21.50;82.30;;;;;;5020619;28;21034;-46
2021/11/16 07:06:38;;;;;;;15.90;15.30;;;21.50;82.30;;;;;;5020386;28;20997;-46
2021/11/16 07:09:06;;;;;;;16.00;15.40;;;21.50;82.40;;;;;;5019883;28;20966;-46
2021/11/16 07:11:43;;;;;;;16.00;15.40;;;21.40;82.50;;;;;;5020528;28;20777;-47
2021/11/16 07:14:12;;;;;;;15.20;14.60;;;21.40;82.90;;;;;;5019865;28;20460;-46
2021/11/16 07:16:41;;;;;;;15.20;14.60;;;21.40;83.00;;;;;;5020444;28;20480;-48
2021/11/16 07:19:09;;;;;;;13.30;12.83;;;21.30;83.10;;;;;;5020266;28;20804;-51
2021/11/16 07:21:45;;;;;;;13.87;13.37;;;21.30;83.10;;;;;;5020465;28;20954;-51
2021/11/16 07:24:15;;;;;;;13.90;13.40;;;21.20;83.20;;;;;;5020271;28;20545;-48
2021/11/16 07:26:44;;;;;;;14.70;14.00;;;21.10;83.50;;;;;;5019610;28;20957;-46
2021/11/16 07:29:14;;;;;;;13.87;13.30;;;21.20;83.70;;;;;;5019918;28;20461;-49
2021/11/16 07:31:42;;;;;;;13.57;13.07;;;21.10;84.10;;;;;;5020219;28;20457;-46
2021/11/16 07:34:13;;;;;;;14.60;14.00;;;21.00;84.20;;;;;;5020115;28;21356;-46
2021/11/16 07:36:40;;;;;;;13.60;13.10;;;21.00;84.30;;;;;;5020017;28;20473;-46
2021/11/16 07:39:07;;;;;;;15.30;14.60;;;21.00;84.50;;;;;;5019860;28;20461;-46
2021/11/16 07:41:34;;;;;;;14.90;14.30;;;21.00;85.00;;;;;;5019798;28;20467;-46
2021/11/16 07:44:12;;;;;;;15.30;14.60;;;20.90;85.20;;;;;;5019546;28;20445;-48
2021/11/16 07:46:40;;;;;;;14.77;14.17;;;20.80;85.90;;;;;;5019964;28;20551;-46
2021/11/16 07:49:07;;;;;;;15.63;14.97;;;20.70;86.20;;;;;;5019645;28;20971;-48
2021/11/16 07:51:34;;;;;;;14.13;13.53;;;20.70;86.40;;;;;;5019917;28;20456;-46
2021/11/16 07:54:01;;;;;;;14.00;13.50;;;20.70;86.90;;;;;;5019888;28;20449;-49
2021/11/16 07:56:28;;;;;;;14.17;13.63;;;20.70;87.10;;;;;;5019613;28;20816;-46
2021/11/16 07:58:58;;;;;;;15.27;14.47;;;20.60;87.40;;;;;;5019266;28;20574;-49
2021/11/16 08:01:36;;;;;;;14.90;14.10;;;20.60;87.90;;;;;;5019004;28;20452;-47
2021/11/16 08:04:16;;;;;;;14.00;13.43;;;20.50;88.30;;;;;;5019865;28;20527;-53
2021/11/16 08:06:52;;;;;;;13.43;12.93;;;20.50;89.80;;;;;;5019767;28;20826;-45
2021/11/16 08:09:24;;;;;;;13.57;12.97;;;20.80;90.30;;;;;;5019552;28;20449;-45
2021/11/16 08:11:55;;;;;;;12.30;11.90;;;21.60;87.50;;;;;;5019038;28;20584;-49
2021/11/16 08:14:22;;;;;;;14.17;13.57;;;22.20;84.00;;;;;;5019348;28;20472;-49
2021/11/16 08:16:57;;;;;;;13.53;13.03;;;22.60;81.80;;;;;;5019918;28;20476;-49
2021/11/16 08:19:26;;;;;;;14.57;14.07;;;23.40;78.80;;;;;;5019339;28;21274;-46
2021/11/16 08:21:56;;;;;;;14.13;13.63;;;24.00;75.00;;;;;;5019395;28;20950;-46
2021/11/16 08:24:25;;;;;;;13.80;13.40;;;24.30;72.00;;;;;;5019349;28;20468;-46
2021/11/16 08:26:54;;;;;;;16.53;15.90;;;24.50;70.20;;;;;;5019019;28;20488;-46
2021/11/16 08:29:26;;;;;;;14.77;14.27;;;24.60;69.00;;;;;;5019055;28;20688;-46
2021/11/16 08:32:04;;;;;;;15.20;14.60;;;24.50;68.20;;;;;;5019431;28;20538;-45
2021/11/16 08:34:32;;;;;;;15.80;15.10;;;24.60;67.90;;;;;;5017571;28;20954;-47
2021/11/16 08:37:00;;;;;;;14.77;14.27;;;24.60;67.10;;;;;;5019189;28;20982;-50
2021/11/16 08:39:34;;;;;;;14.97;14.43;;;24.50;66.80;;;;;;5019157;28;21229;-49
2021/11/16 08:42:03;;;;;;;14.57;13.97;;;24.50;66.90;;;;;;5019113;28;21012;-49
2021/11/16 08:44:34;;;;;;;15.60;15.00;;;24.50;66.50;;;;;;5019242;28;20518;-46
2021/11/16 08:47:12;;;;;;;15.53;14.93;;;24.60;66.50;;;;;;5018988;28;20473;-48
2021/11/16 08:49:43;;;;;;;15.27;14.67;;;25.20;65.00;;;;;;5019223;28;20445;-47
2021/11/16 08:52:16;;;;;;;14.67;14.17;;;25.60;62.50;;;;;;5019207;28;20817;-46
2021/11/16 08:54:54;;;;;;;15.63;15.13;;;25.70;61.30;;;;;;5019466;28;21009;-50
2021/11/16 08:57:22;;;;;;;15.53;14.93;;;25.70;60.60;;;;;;5023032;28;20472;-50
2021/11/16 08:59:49;;;;;;;15.07;14.57;;;25.70;60.50;;;;;;5022925;28;20960;-51
2021/11/16 09:02:19;;;;;;;15.97;15.37;;;25.70;60.20;;;;;;5023212;28;20495;-50
2021/11/16 09:04:46;;;;;;;14.60;14.10;;;25.70;60.00;;;;;;5023055;28;20670;-51
2021/11/16 09:07:20;;;;;;;15.73;15.13;;;25.70;60.00;;;;;;5022628;28;20500;-48
2021/11/16 09:09:58;;;;;;;16.10;15.50;;;25.70;59.90;;;;;;5022637;28;20455;-51
2021/11/16 09:12:38;;;;;;;16.37;15.77;;;25.60;59.80;;;;;;5022744;28;21037;-52
2021/11/16 09:15:07;;;;;;;16.73;16.13;;;25.70;60.10;;;;;;5022380;28;20965;-49
2021/11/16 09:17:36;;;;;;;17.07;16.47;;;26.10;59.50;;;;;;5022579;28;20521;-49
2021/11/16 09:20:25;;;;;;;16.17;15.57;;;26.30;58.40;;;;;;5022380;28;20445;-47
2021/11/16 09:22:57;;;;;;;16.00;15.20;;;26.30;58.20;;;;;;5019951;28;20474;-49
2021/11/16 09:25:32;;;;;;;16.83;16.13;;;26.40;57.80;;;;;;5022763;28;20507;-52
2021/11/16 09:28:06;;;;;;;16.37;15.77;;;26.40;57.60;;;;;;5022196;28;20514;-52
2021/11/16 09:30:36;;;;;;;16.40;15.70;;;26.40;57.40;;;;;;5022162;28;20472;-50
2021/11/16 09:33:08;;;;;;;15.43;14.83;;;26.30;57.10;;;;;;5022310;28;20463;-47
2021/11/16 09:36:01;;;;;;;15.47;14.90;;;26.10;57.40;;;;;;5022188;28;20452;-46
2021/11/16 09:38:35;;;;;;;15.07;14.57;;;25.90;57.30;;;;;;5012684;28;20465;-49
2021/11/16 09:41:01;;;;;;;17.17;16.47;;;26.00;57.70;;;;;;5022352;28;20452;-47
2021/11/16 09:43:28;;;;;;;15.73;15.10;;;26.40;57.10;;;;;;5022100;28;20449;-50
2021/11/16 09:46:03;;;;;;;15.33;14.83;;;26.50;56.20;;;;;;5021993;28;21028;-50
2021/11/16 09:48:32;;;;;;;15.57;15.00;;;26.50;56.00;;;;;;5021740;28;20484;-46
2021/11/16 09:50:59;;;;;;;15.90;15.27;;;26.40;56.00;;;;;;5022140;28;20536;-47
2021/11/16 09:53:26;;;;;;;17.50;16.80;;;26.40;55.90;;;;;;5021781;28;20887;-48
2021/11/16 09:55:53;;;;;;;16.10;15.50;;;26.30;55.90;;;;;;5021773;28;20452;-47
2021/11/16 09:58:24;;;;;;;15.80;15.30;;;26.20;56.00;;;;;;5021868;28;20449;-46
2021/11/16 10:00:53;;;;;;;15.80;15.20;;;26.10;56.10;;;;;;5021674;28;20456;-47
2021/11/16 10:03:23;;;;;;;16.47;15.70;;;26.10;56.10;;;;;;5021876;28;20452;-48
2021/11/16 10:05:54;;;;;;;15.43;14.90;;;26.10;56.10;;;;;;5014819;28;20452;-48
2021/11/16 10:08:22;;;;;;;16.70;16.00;;;26.10;56.20;;;;;;5022054;28;20542;-49
2021/11/16 10:10:51;;;;;;;16.50;15.90;;;26.60;55.40;;;;;;5025202;28;20445;-51
2021/11/16 10:13:22;;;;;;;16.33;15.70;;;26.50;55.50;;;;;;5033508;28;20799;-50
2021/11/16 10:15:51;;;;;;;16.20;15.60;;;26.30;56.10;;;;;;5030400;28;20442;-52
2021/11/16 10:18:19;;;;;;;16.73;16.10;;;26.20;56.50;;;;;;5033292;28;20453;-57
2021/11/16 10:20:47;;;;;;;16.63;15.83;;;26.10;56.50;;;;;;5033184;28;20449;-54
2021/11/16 10:23:18;;;;;;;16.37;15.70;;;26.00;56.60;;;;;;5033013;28;20491;-53
2021/11/16 10:25:52;;;;;;;15.83;15.23;;;26.00;56.60;;;;;;5032382;28;20449;-59
2021/11/16 10:28:19;;;;;;;15.20;14.60;;;26.00;56.60;;;;;;5024152;28;20480;-57
2021/11/16 10:30:47;;;;;;;16.00;15.40;;;26.00;56.80;;;;;;5033197;28;20448;-56
2021/11/16 10:33:17;;;;;;;15.90;15.13;;;26.10;56.80;;;;;;5033391;28;20445;-59
2021/11/16 10:35:48;;;;;;;15.93;15.33;;;26.40;56.50;;;;;;5033262;28;20444;-59
2021/11/16 10:38:18;;;;;;;16.33;15.73;;;26.50;55.90;;;;;;5033230;28;20437;-60
2021/11/16 10:40:45;;;;;;;15.77;15.17;;;26.50;55.70;;;;;;5032683;28;20560;-58
2021/11/16 10:43:12;;;;;;;16.80;16.10;;;26.60;55.50;;;;;;5032718;28;20454;-59
2021/11/16 10:45:44;;;;;;;16.00;15.40;;;26.70;55.30;;;;;;5032845;28;21034;-57
2021/11/16 10:48:13;;;;;;;16.60;16.00;;;26.60;55.20;;;;;;5032757;28;20481;-57
2021/11/16 10:50:43;;;;;;;16.43;15.83;;;26.60;55.20;;;;;;5032724;28;20824;-58
2021/11/16 10:53:12;;;;;;;16.17;15.57;;;26.50;55.10;;;;;;5032826;28;20449;-59
2021/11/16 10:55:46;;;;;;;16.00;15.40;;;26.50;55.20;;;;;;5032628;28;20457;-59
2021/11/16 10:58:14;;;;;;;16.77;16.17;;;26.70;55.30;;;;;;5032681;28;20450;-53
2021/11/16 11:00:46;;;;;;;16.53;15.83;;;26.90;55.10;;;;;;5032497;28;20452;-54
2021/11/16 11:03:25;;;;;;;16.27;15.67;;;27.10;54.60;;;;;;5032686;28;20441;-53
2021/11/16 11:05:54;;;;;;;16.30;15.63;;;27.10;54.20;;;;;;5032423;28;20449;-58
2021/11/16 11:08:41;;;;;;;15.77;15.17;;;27.20;54.00;;;;;;5032416;28;20485;-58
2021/11/16 11:11:21;;;;;;;16.27;15.67;;;27.20;53.80;;;;;;5032338;28;20453;-58
2021/11/16 11:13:53;;;;;;;15.70;15.20;;;27.20;53.70;;;;;;5032523;28;20461;-52
2021/11/16 11:16:21;;;;;;;16.33;15.73;;;27.10;53.60;;;;;;5031323;28;20831;-52
2021/11/16 11:18:49;;;;;;;16.07;15.37;;;27.10;53.50;;;;;;5021802;28;20446;-54
2021/11/16 11:21:33;;;;;;;15.97;15.37;;;26.90;53.50;;;;;;5012517;28;20454;-50
2021/11/16 11:24:07;;;;;;;16.60;15.83;;;26.80;53.70;;;;;;5028110;28;20942;-55
2021/11/16 11:26:40;;;;;;;15.10;14.50;;;27.00;53.40;;;;;;5031863;28;20535;-53
2021/11/16 11:29:21;;;;;;;17.50;16.83;;;27.00;53.00;;;;;;5031867;28;20485;-56
2021/11/16 11:31:51;;;;;;;15.83;15.23;;;26.90;53.10;;;;;;5032069;28;20441;-54
2021/11/16 11:34:19;;;;;;;14.97;14.47;;;26.80;53.10;;;;;;5032174;28;20992;-57
2021/11/16 11:36:46;;;;;;;16.63;16.00;;;26.80;53.30;;;;;;5031553;28;20461;-57
2021/11/16 11:39:18;;;;;;;15.53;15.00;;;26.80;53.50;;;;;;5031672;28;20499;-55
2021/11/16 11:41:53;;;;;;;16.20;15.60;;;26.90;53.40;;;;;;5031904;28;20441;-52
2021/11/16 11:44:21;;;;;;;16.50;15.80;;;27.10;53.00;;;;;;5032047;28;20436;-51
2021/11/16 11:46:50;;;;;;;15.63;15.03;;;27.00;52.70;;;;;;5031593;28;20468;-48
2021/11/16 11:49:17;;;;;;;15.93;15.33;;;27.00;52.70;;;;;;5031264;28;20834;-52
2021/11/16 11:51:44;;;;;;;16.20;15.60;;;26.90;52.70;;;;;;5031735;28;20454;-50
2021/11/16 11:54:11;;;;;;;16.53;15.93;;;26.80;52.80;;;;;;5031711;28;20949;-50
2021/11/16 11:56:38;;;;;;;16.47;15.87;;;26.80;53.00;;;;;;5031623;28;20526;-48
2021/11/16 11:59:06;;;;;;;15.07;14.47;;;26.70;53.00;;;;;;5031326;28;20441;-48
2021/11/16 12:01:33;;;;;;;16.03;15.43;;;26.60;53.10;;;;;;5031554;28;20449;-49
2021/11/16 12:04:00;;;;;;;16.57;15.97;;;26.70;53.40;;;;;;5031138;28;20455;-48
2021/11/16 12:06:29;;;;;;;15.77;15.23;;;26.90;53.30;;;;;;5031078;28;20469;-52
2021/11/16 12:08:59;;;;;;;15.37;14.77;;;26.90;52.90;;;;;;5031373;28;20511;-48
2021/11/16 12:11:26;;;;;;;15.43;14.80;;;26.90;52.80;;;;;;5031332;28;20449;-54
2021/11/16 12:13:55;;;;;;;15.90;15.30;;;26.90;52.80;;;;;;5031544;28;20445;-51
2021/11/16 12:16:35;;;;;;;15.03;14.53;;;26.80;52.80;;;;;;5031528;28;20506;-49
2021/11/16 12:19:07;;;;;;;16.00;15.30;;;26.80;52.80;;;;;;5031060;28;20480;-48
2021/11/16 12:21:37;;;;;;;16.03;15.43;;;26.80;53.10;;;;;;5031375;28;20449;-48
2021/11/16 12:24:05;;;;;;;16.20;15.60;;;26.70;53.20;;;;;;5031049;28;20449;-48
2021/11/16 12:26:34;;;;;;;17.30;16.60;;;26.60;53.40;;;;;;5031053;28;20476;-46
2021/11/16 12:29:19;;;;;;;16.33;15.73;;;26.60;53.50;;;;;;5031815;28;20518;-51
2021/11/16 12:31:49;;;;;;;15.27;14.67;;;26.50;53.60;;;;;;5035453;28;20448;-49
2021/11/16 12:34:33;;;;;;;17.70;16.93;;;26.60;53.80;;;;;;5035245;28;20457;-47
2021/11/16 12:37:00;;;;;;;15.67;15.07;;;26.80;53.40;;;;;;5035459;28;20464;-55
2021/11/16 12:39:28;;;;;;;14.90;14.40;;;26.90;53.10;;;;;;5035094;28;20445;-56
2021/11/16 12:42:09;;;;;;;15.50;15.00;;;26.80;53.00;;;;;;5034935;28;20445;-54
2021/11/16 12:44:44;;;;;;;16.33;15.73;;;26.90;52.90;;;;;;5035070;28;20817;-56
2021/11/16 12:47:15;;;;;;;16.93;16.13;;;26.90;52.90;;;;;;5035026;28;20832;-52